createdAt,value
2022-09-18T00:01:25.784Z,6.95
2022-09-18T00:03:49.465Z,6.35
2022-09-18T00:06:17.070Z,7.60
2022-09-18T00:08:40.968Z,8.30
2022-09-18T00:11:06.958Z,9.07
2022-09-18T00:13:30.573Z,5.43
2022-09-18T00:15:57.005Z,8.65
2022-09-18T00:18:20.614Z,4.40
2022-09-18T00:20:44.187Z,9.18
2022-09-18T00:23:09.143Z,7.82
2022-09-18T00:25:33.294Z,5.93
2022-09-18T00:27:56.854Z,3.30
2022-09-18T00:30:20.486Z,4.18
2022-09-18T00:32:44.279Z,4.97
2022-09-18T00:35:09.205Z,2.75
2022-09-18T00:37:32.730Z,7.07
2022-09-18T00:39:57.850Z,3.35
2022-09-18T00:42:22.601Z,3.20
2022-09-18T00:44:47.678Z,4.60
2022-09-18T00:47:28.715Z,3.75
2022-09-18T00:49:59.923Z,3.65
2022-09-18T00:52:29.328Z,2.30
2022-09-18T00:54:59.824Z,3.33
2022-09-18T00:57:29.427Z,1.67
2022-09-18T00:59:54.375Z,2.72
2022-09-18T01:02:18.392Z,2.70
2022-09-18T01:04:42.590Z,1.85
2022-09-18T01:07:13.176Z,1.90
2022-09-18T01:09:45.792Z,1.15
2022-09-18T01:12:20.064Z,2.05
2022-09-18T01:14:54.195Z,1.40
2022-09-18T01:17:29.063Z,2.15
2022-09-18T01:20:27.507Z,0.70
2022-09-18T01:23:15.144Z,0.65
2022-09-18T01:25:57.024Z,5.78
2022-09-18T01:28:30.479Z,1.52
2022-09-18T01:31:00.131Z,3.10
2022-09-18T01:33:33.181Z,2.65
2022-09-18T01:36:01.734Z,1.35
2022-09-18T01:38:31.480Z,1.55
2022-09-18T01:41:01.608Z,1.15
2022-09-18T01:43:30.975Z,1.13
2022-09-18T01:45:59.463Z,1.30
2022-09-18T01:48:30.546Z,1.85
2022-09-18T01:51:01.763Z,3.80
2022-09-18T01:53:32.802Z,4.28
2022-09-18T01:56:00.671Z,3.20
2022-09-18T01:58:28.589Z,2.67
2022-09-18T02:00:57.123Z,3.80
2022-09-18T02:03:26.219Z,1.70
2022-09-18T02:05:55.614Z,2.13
2022-09-18T02:08:24.815Z,1.38
2022-09-18T02:10:59.391Z,2.60
2022-09-18T02:13:33.407Z,1.05
2022-09-18T02:16:01.509Z,4.00
2022-09-18T02:18:31.405Z,4.90
2022-09-18T02:20:56.310Z,1.10
2022-09-18T02:23:20.590Z,2.30
2022-09-18T02:25:49.435Z,2.20
2022-09-18T02:28:17.860Z,4.00
2022-09-18T02:30:44.050Z,1.73
2022-09-18T02:33:27.754Z,2.53
2022-09-18T02:36:07.375Z,4.40
2022-09-18T02:38:39.122Z,4.10
2022-09-18T02:41:16.380Z,5.38
2022-09-18T02:43:50.814Z,4.45
2022-09-18T02:46:28.932Z,6.35
2022-09-18T02:49:06.396Z,16.85
2022-09-18T02:51:36.746Z,10.25
2022-09-18T02:54:07.259Z,13.32
2022-09-18T02:56:39.794Z,8.95
2022-09-18T02:59:11.073Z,11.13
2022-09-18T03:01:38.183Z,14.93
2022-09-18T03:04:05.959Z,17.45
2022-09-18T03:06:43.927Z,11.52
2022-09-18T03:09:08.611Z,10.27
2022-09-18T03:11:32.691Z,10.82
2022-09-18T03:13:56.298Z,18.13
2022-09-18T03:16:21.160Z,12.30
2022-09-18T03:18:46.439Z,14.45
2022-09-18T03:21:10.080Z,12.57
2022-09-18T03:23:33.789Z,19.58
2022-09-18T03:26:19.510Z,15.38
2022-09-18T03:28:44.274Z,12.07
2022-09-18T03:31:10.219Z,14.73
2022-09-18T03:33:33.915Z,14.68
2022-09-18T03:35:59.880Z,17.20
2022-09-18T03:38:23.772Z,17.08
2022-09-18T03:40:49.751Z,21.90
2022-09-18T03:43:13.955Z,14.20
2022-09-18T03:45:37.505Z,13.70
2022-09-18T03:48:01.264Z,20.60
2022-09-18T03:50:25.499Z,22.70
2022-09-18T03:52:51.685Z,18.85
2022-09-18T03:55:51.531Z,17.13
2022-09-18T03:58:33.706Z,16.92
2022-09-18T04:01:35.540Z,18.67
2022-09-18T04:04:17.981Z,17.05
2022-09-18T04:06:50.709Z,15.55
2022-09-18T04:09:47.329Z,16.00
2022-09-18T04:12:12.211Z,24.48
2022-09-18T04:14:38.719Z,25.50
2022-09-18T04:17:02.410Z,24.92
2022-09-18T04:19:26.819Z,24.13
2022-09-18T04:21:50.566Z,18.23
2022-09-18T04:24:17.151Z,20.35
2022-09-18T04:26:42.847Z,18.23
2022-09-18T04:29:06.778Z,20.95
2022-09-18T04:31:32.029Z,14.57
2022-09-18T04:34:00.481Z,19.35
2022-09-18T04:36:24.467Z,19.45
2022-09-18T04:38:49.063Z,15.50
2022-09-18T04:41:12.724Z,16.13
2022-09-18T04:43:37.812Z,13.32
2022-09-18T04:46:02.985Z,18.98
2022-09-18T04:48:26.850Z,13.23
2022-09-18T04:50:52.274Z,9.85
2022-09-18T04:53:16.272Z,16.75
2022-09-18T04:55:44.609Z,17.85
2022-09-18T04:58:08.516Z,15.70
2022-09-18T05:00:36.109Z,17.92
2022-09-18T05:03:00.156Z,17.58
2022-09-18T05:05:26.038Z,18.88
2022-09-18T05:07:49.746Z,15.38
2022-09-18T05:10:14.815Z,10.05
2022-09-18T05:12:41.051Z,14.85
2022-09-18T05:15:06.055Z,10.02
2022-09-18T05:17:33.028Z,11.95
2022-09-18T05:19:59.524Z,13.30
2022-09-18T05:22:27.069Z,13.48
2022-09-18T05:24:50.697Z,14.85
2022-09-18T05:27:14.216Z,12.50
2022-09-18T05:29:37.787Z,9.73
2022-09-18T05:32:08.477Z,10.55
2022-09-18T05:34:34.889Z,9.88
2022-09-18T05:36:58.414Z,11.95
2022-09-18T05:39:21.994Z,13.13
2022-09-18T05:41:45.889Z,8.45
2022-09-18T05:44:09.463Z,9.02
2022-09-18T05:46:33.576Z,12.02
2022-09-18T05:48:59.897Z,16.27
2022-09-18T05:51:24.870Z,12.45
2022-09-18T05:53:48.818Z,11.80
2022-09-18T05:56:18.030Z,13.52
2022-09-18T05:58:42.337Z,19.77
2022-09-18T06:01:06.272Z,10.30
2022-09-18T06:03:51.103Z,13.50
2022-09-18T06:06:16.098Z,15.38
2022-09-18T06:08:41.012Z,9.20
2022-09-18T06:11:05.162Z,17.88
2022-09-18T06:13:29.495Z,13.68
2022-09-18T06:15:53.604Z,7.30
2022-09-18T06:18:27.434Z,13.23
2022-09-18T06:20:56.699Z,12.00
2022-09-18T06:23:23.779Z,12.80
2022-09-18T06:26:00.454Z,15.13
2022-09-18T06:28:24.083Z,14.10
2022-09-18T06:30:47.857Z,10.25
2022-09-18T06:33:12.286Z,9.20
2022-09-18T06:35:38.346Z,7.60
2022-09-18T06:38:03.951Z,10.98
2022-09-18T06:40:49.186Z,9.50
2022-09-18T06:43:21.078Z,8.55
2022-09-18T06:46:12.441Z,15.70
2022-09-18T06:48:40.820Z,11.18
2022-09-18T06:51:04.855Z,11.27
2022-09-18T06:53:38.916Z,9.93
2022-09-18T06:56:03.554Z,10.55
2022-09-18T06:58:32.799Z,16.90
2022-09-18T07:00:56.563Z,11.55
2022-09-18T07:03:26.079Z,15.98
2022-09-18T07:06:01.922Z,8.43
2022-09-18T07:08:37.644Z,10.85
2022-09-18T07:11:11.247Z,11.00
2022-09-18T07:13:37.561Z,13.10
2022-09-18T07:16:02.924Z,11.43
2022-09-18T07:18:27.076Z,11.43
2022-09-18T07:20:50.667Z,8.07
2022-09-18T07:23:25.330Z,9.15
2022-09-18T07:25:49.878Z,12.35
2022-09-18T07:28:13.675Z,9.73
2022-09-18T07:30:45.356Z,13.18
2022-09-18T07:33:10.531Z,15.93
2022-09-18T07:35:40.494Z,22.00
2022-09-18T07:38:07.535Z,9.60
2022-09-18T07:40:45.594Z,9.57
2022-09-18T07:43:17.028Z,9.27
2022-09-18T07:45:49.075Z,8.63
2022-09-18T07:48:13.089Z,6.80
2022-09-18T07:50:42.767Z,8.70
2022-09-18T07:53:09.033Z,8.40
2022-09-18T07:55:37.249Z,13.73
2022-09-18T07:58:04.989Z,9.02
2022-09-18T08:00:48.423Z,8.55
2022-09-18T08:03:14.387Z,12.38
2022-09-18T08:05:56.618Z,12.30
2022-09-18T08:08:20.662Z,10.90
2022-09-18T08:11:09.163Z,9.50
2022-09-18T08:13:51.474Z,10.45
2022-09-18T08:16:34.911Z,7.57
2022-09-18T08:18:58.690Z,6.18
2022-09-18T08:21:42.476Z,10.00
2022-09-18T08:24:08.995Z,10.55
2022-09-18T08:26:35.912Z,11.85
2022-09-18T08:28:59.554Z,12.40
2022-09-18T08:31:23.896Z,10.13
2022-09-18T08:33:53.254Z,11.10
2022-09-18T08:36:17.043Z,16.55
2022-09-18T08:38:55.310Z,10.77
2022-09-18T08:41:50.718Z,11.05
2022-09-18T08:44:24.302Z,8.95
2022-09-18T08:46:52.727Z,10.00
2022-09-18T08:49:26.464Z,6.28
2022-09-18T08:52:01.196Z,9.82
2022-09-18T08:54:52.234Z,10.00
2022-09-18T08:57:34.518Z,9.45
2022-09-18T09:00:08.283Z,8.45
2022-09-18T09:02:40.840Z,6.70
2022-09-18T09:05:12.305Z,8.55
2022-09-18T09:08:09.378Z,10.00
2022-09-18T09:10:43.622Z,6.97
2022-09-18T09:13:44.950Z,8.38
2022-09-18T09:16:17.644Z,10.52
2022-09-18T09:18:58.395Z,11.82
2022-09-18T09:21:36.807Z,6.57
2022-09-18T09:24:21.188Z,10.27
2022-09-18T09:27:22.339Z,6.00
2022-09-18T09:30:04.027Z,8.57
2022-09-18T09:32:51.081Z,7.18
2022-09-18T09:35:32.222Z,8.05
2022-09-18T09:38:06.791Z,7.13
2022-09-18T09:40:37.872Z,3.28
2022-09-18T09:43:07.594Z,7.60
2022-09-18T09:45:39.133Z,6.55
2022-09-18T09:48:09.230Z,5.32
2022-09-18T09:50:46.975Z,3.15
2022-09-18T09:53:14.503Z,7.22
2022-09-18T09:55:49.015Z,5.15
2022-09-18T09:58:27.191Z,7.38
2022-09-18T10:01:03.126Z,11.27
2022-09-18T10:03:40.354Z,6.25
2022-09-18T10:06:19.993Z,6.53
2022-09-18T10:08:49.046Z,6.72
2022-09-18T10:11:14.107Z,6.88
2022-09-18T10:13:46.822Z,6.32
2022-09-18T10:16:17.922Z,6.90
2022-09-18T10:18:45.828Z,4.55
2022-09-18T10:21:14.331Z,3.70
2022-09-18T10:23:41.423Z,7.35
2022-09-18T10:26:11.740Z,4.78
2022-09-18T10:28:35.403Z,4.60
2022-09-18T10:31:03.047Z,6.20
2022-09-18T10:33:40.072Z,4.20
2022-09-18T10:36:22.691Z,4.05
2022-09-18T10:38:46.914Z,5.70
2022-09-18T10:41:36.872Z,5.25
2022-09-18T10:44:21.679Z,8.73
2022-09-18T10:46:56.222Z,6.25
2022-09-18T10:49:25.256Z,5.32
2022-09-18T10:51:48.858Z,5.20
2022-09-18T10:54:23.113Z,5.05
2022-09-18T10:57:27.656Z,8.68
2022-09-18T10:59:53.112Z,6.95
2022-09-18T11:02:21.332Z,6.40
2022-09-18T11:04:48.877Z,5.88
2022-09-18T11:07:15.591Z,8.30
2022-09-18T11:09:41.284Z,4.35
2022-09-18T11:12:18.461Z,8.05
2022-09-18T11:14:46.927Z,5.28
2022-09-18T11:17:25.809Z,4.97
2022-09-18T11:19:53.101Z,6.45
2022-09-18T11:22:42.805Z,7.68
2022-09-18T11:25:24.463Z,4.57
2022-09-18T11:27:55.499Z,5.65
2022-09-18T11:30:26.698Z,6.03
2022-09-18T11:32:54.502Z,7.63
2022-09-18T11:35:21.408Z,6.95
2022-09-18T11:37:52.302Z,4.07
2022-09-18T11:40:24.752Z,7.45
2022-09-18T11:42:52.316Z,6.05
2022-09-18T11:45:53.037Z,5.20
2022-09-18T11:48:29.350Z,6.20
2022-09-18T11:51:04.558Z,5.80
2022-09-18T11:53:34.067Z,4.63
2022-09-18T11:56:06.399Z,6.00
2022-09-18T11:58:36.439Z,6.60
2022-09-18T12:01:14.624Z,8.50
2022-09-18T12:03:44.062Z,2.90
2022-09-18T12:06:15.383Z,14.20
2022-09-18T12:08:47.854Z,4.60
2022-09-18T12:11:22.529Z,2.67
2022-09-18T12:14:04.383Z,2.83
2022-09-18T12:16:43.989Z,2.80
2022-09-18T12:19:16.880Z,5.88
2022-09-18T12:21:49.604Z,2.22
2022-09-18T12:24:16.371Z,3.22
2022-09-18T12:26:55.040Z,2.85
2022-09-18T12:29:33.171Z,4.13
2022-09-18T12:32:07.972Z,3.53
2022-09-18T12:34:39.842Z,3.40
2022-09-18T12:37:19.395Z,2.75
2022-09-18T12:40:13.868Z,4.78
2022-09-18T12:42:49.495Z,2.63
2022-09-18T12:46:00.278Z,3.55
2022-09-18T12:49:00.009Z,5.18
2022-09-18T12:51:38.715Z,7.57
2022-09-18T12:54:36.488Z,4.93
2022-09-18T12:57:21.087Z,4.25
2022-09-18T12:59:55.209Z,3.53
2022-09-18T13:02:33.379Z,4.30
2022-09-18T13:05:04.502Z,7.10
2022-09-18T13:07:34.162Z,9.15
2022-09-18T13:10:04.915Z,1.85
2022-09-18T13:12:35.111Z,5.18
2022-09-18T13:15:04.565Z,3.35
2022-09-18T13:17:35.338Z,3.13
2022-09-18T13:20:07.194Z,2.08
2022-09-18T13:22:36.559Z,2.80
2022-09-18T13:25:00.801Z,2.55
2022-09-18T13:27:27.274Z,1.48
2022-09-18T13:29:59.584Z,1.05
2022-09-18T13:32:26.009Z,2.17
2022-09-18T13:34:55.342Z,1.52
2022-09-18T13:37:23.379Z,0.70
2022-09-18T13:40:09.359Z,2.25
2022-09-18T13:42:37.357Z,2.17
2022-09-18T13:45:07.809Z,2.13
2022-09-18T13:47:31.571Z,1.80
2022-09-18T13:49:58.548Z,3.78
2022-09-18T13:52:44.998Z,5.43
2022-09-18T13:55:36.333Z,4.70
2022-09-18T13:58:52.570Z,3.05
2022-09-18T14:01:58.805Z,3.33
2022-09-18T14:05:01.028Z,2.47
2022-09-18T14:07:53.541Z,2.97
2022-09-18T14:10:29.566Z,4.68
2022-09-18T14:13:54.454Z,4.28
2022-09-18T14:16:38.856Z,3.03
2022-09-18T14:19:07.201Z,3.72
2022-09-18T14:21:33.689Z,4.45
2022-09-18T14:24:38.145Z,2.45
2022-09-18T14:27:27.418Z,2.80
2022-09-18T14:29:57.133Z,3.25
2022-09-18T14:32:20.722Z,2.13
2022-09-18T14:34:45.461Z,2.90
2022-09-18T14:37:26.850Z,2.75
2022-09-18T14:39:54.115Z,1.10
2022-09-18T14:42:32.470Z,3.22
2022-09-18T14:45:10.763Z,5.05
2022-09-18T14:47:34.434Z,3.13
2022-09-18T14:49:58.020Z,1.83
2022-09-18T14:52:23.947Z,2.88
2022-09-18T14:54:48.731Z,1.85
2022-09-18T14:57:16.610Z,2.22
2022-09-18T14:59:41.161Z,5.18
2022-09-18T15:02:23.313Z,3.63
2022-09-18T15:04:47.500Z,4.30
2022-09-18T15:07:20.170Z,1.75
2022-09-18T15:09:45.354Z,4.35
2022-09-18T15:12:16.423Z,3.38
2022-09-18T15:14:45.553Z,1.75
2022-09-18T15:17:20.746Z,3.92
2022-09-18T15:19:57.609Z,2.83
2022-09-18T15:22:23.820Z,3.85
2022-09-18T15:24:47.346Z,4.35
2022-09-18T15:27:16.659Z,4.97
2022-09-18T15:29:47.539Z,7.88
2022-09-18T15:32:17.840Z,2.00
2022-09-18T15:34:47.265Z,3.97
2022-09-18T15:37:20.709Z,2.33
2022-09-18T15:39:45.234Z,5.28
2022-09-18T15:42:29.533Z,3.90
2022-09-18T15:45:21.614Z,3.25
2022-09-18T15:47:45.272Z,4.07
2022-09-18T15:50:39.978Z,4.10
2022-09-18T15:53:19.464Z,3.70
2022-09-18T15:55:56.043Z,2.00
2022-09-18T15:58:35.042Z,3.28
2022-09-18T16:01:01.156Z,4.28
2022-09-18T16:03:28.054Z,3.47
2022-09-18T16:05:56.234Z,3.08
2022-09-18T16:08:22.839Z,2.97
2022-09-18T16:10:51.027Z,4.18
2022-09-18T16:16:26.816Z,2.47
2022-09-18T16:18:57.165Z,4.53
2022-09-18T16:21:21.490Z,5.68
2022-09-18T16:23:50.670Z,4.05
2022-09-18T16:26:24.687Z,6.38
2022-09-18T16:28:51.626Z,5.55
2022-09-18T16:31:19.508Z,5.38
2022-09-18T16:33:55.557Z,4.72
2022-09-18T16:36:34.239Z,4.13
2022-09-18T16:39:01.467Z,3.95
2022-09-18T16:41:25.523Z,3.03
2022-09-18T16:43:49.734Z,3.05
2022-09-18T16:46:14.138Z,4.68
2022-09-18T16:48:39.231Z,5.40
2022-09-18T16:51:02.799Z,3.55
2022-09-18T16:53:26.495Z,3.00
2022-09-18T16:55:53.711Z,3.90
2022-09-18T16:58:19.441Z,5.20
2022-09-18T17:00:43.796Z,3.38
2022-09-18T17:03:08.564Z,5.95
2022-09-18T17:05:34.694Z,5.15
2022-09-18T17:07:58.479Z,4.70
2022-09-18T17:10:22.150Z,9.75
2022-09-18T17:12:46.567Z,3.30
2022-09-18T17:15:11.150Z,4.35
2022-09-18T17:17:35.239Z,5.32
2022-09-18T17:19:58.803Z,5.38
2022-09-18T17:22:24.011Z,5.00
2022-09-18T17:24:47.706Z,4.57
2022-09-18T17:27:11.490Z,5.25
2022-09-18T17:29:35.637Z,3.25
2022-09-18T17:31:59.811Z,4.68
2022-09-18T17:34:24.286Z,3.88
2022-09-18T17:36:48.192Z,6.57
2022-09-18T17:39:13.533Z,4.47
2022-09-18T17:41:37.351Z,3.13
2022-09-18T17:44:01.033Z,2.75
2022-09-18T17:46:24.679Z,5.20
2022-09-18T17:48:48.367Z,2.38
2022-09-18T17:51:15.386Z,4.78
2022-09-18T17:53:39.641Z,4.28
2022-09-18T17:56:05.880Z,6.15
2022-09-18T17:58:31.018Z,4.45
2022-09-18T18:00:54.818Z,7.47
2022-09-18T18:03:19.131Z,5.60
2022-09-18T18:05:42.703Z,5.15
2022-09-18T18:08:06.885Z,6.75
2022-09-18T18:10:30.799Z,2.97
2022-09-18T18:12:55.767Z,8.30
2022-09-18T18:15:19.575Z,5.47
2022-09-18T18:17:43.184Z,3.13
2022-09-18T18:20:07.453Z,5.40
2022-09-18T18:22:32.101Z,6.00
2022-09-18T18:24:55.956Z,3.53
2022-09-18T18:27:21.586Z,4.35
2022-09-18T18:29:47.510Z,4.70
2022-09-18T18:32:12.651Z,5.43
2022-09-18T18:34:36.258Z,3.85
2022-09-18T18:37:00.667Z,5.63
2022-09-18T18:39:24.462Z,3.15
2022-09-18T18:41:48.558Z,4.93
2022-09-18T18:44:13.324Z,4.22
2022-09-18T18:46:39.129Z,4.32
2022-09-18T18:49:04.064Z,7.38
2022-09-18T18:51:28.711Z,5.63
2022-09-18T18:53:56.567Z,6.53
2022-09-18T18:56:20.086Z,9.40
2022-09-18T18:58:45.147Z,8.15
2022-09-18T19:01:10.514Z,5.25
2022-09-18T19:03:41.977Z,5.05
2022-09-18T19:06:06.035Z,7.38
2022-09-18T19:08:29.687Z,3.85
2022-09-18T19:10:57.990Z,6.93
2022-09-18T19:13:25.012Z,7.03
2022-09-18T19:15:48.741Z,3.28
2022-09-18T19:18:12.342Z,6.00
2022-09-18T19:20:37.388Z,5.72
2022-09-18T19:23:01.061Z,3.00
2022-09-18T19:25:25.930Z,2.90
2022-09-18T19:27:49.458Z,3.92
2022-09-18T19:30:13.721Z,4.95
2022-09-18T19:32:37.771Z,5.97
2022-09-18T19:35:02.856Z,6.45
2022-09-18T19:37:29.334Z,3.85
2022-09-18T19:39:52.951Z,3.70
2022-09-18T19:42:17.386Z,7.53
2022-09-18T19:44:46.810Z,3.08
2022-09-18T19:47:19.582Z,2.85
2022-09-18T19:49:44.106Z,2.90
2022-09-18T19:52:18.529Z,4.90
2022-09-18T19:54:43.550Z,3.83
2022-09-18T19:57:07.231Z,5.05
2022-09-18T19:59:31.323Z,8.10
2022-09-18T20:01:55.472Z,5.32
2022-09-18T20:04:19.123Z,2.78
2022-09-18T20:06:42.674Z,5.72
2022-09-18T20:09:06.765Z,4.82
2022-09-18T20:11:31.723Z,4.80
2022-09-18T20:13:55.357Z,6.97
2022-09-18T20:16:19.997Z,3.42
2022-09-18T20:18:43.622Z,9.02
2022-09-18T20:21:11.048Z,6.15
2022-09-18T20:23:34.731Z,8.60
2022-09-18T20:25:58.268Z,4.65
2022-09-18T20:28:23.262Z,6.65
2022-09-18T20:30:46.782Z,5.20
2022-09-18T20:33:10.369Z,4.47
2022-09-18T20:35:38.346Z,7.20
2022-09-18T20:38:04.174Z,7.03
2022-09-18T20:40:27.802Z,6.30
2022-09-18T20:42:52.066Z,5.03
2022-09-18T20:45:17.486Z,5.95
2022-09-18T20:47:41.025Z,8.05
2022-09-18T20:50:07.125Z,6.25
2022-09-18T20:52:31.171Z,3.80
2022-09-18T20:54:55.387Z,6.65
2022-09-18T20:57:19.193Z,5.65
2022-09-18T20:59:42.694Z,7.93
2022-09-18T21:02:08.056Z,5.25
2022-09-18T21:04:31.756Z,5.20
2022-09-18T21:06:56.675Z,5.97
2022-09-18T21:09:20.318Z,7.15
2022-09-18T21:11:45.342Z,7.13
2022-09-18T21:14:11.818Z,5.90
2022-09-18T21:16:39.298Z,6.15
2022-09-18T21:19:05.043Z,9.88
2022-09-18T21:21:31.449Z,10.77
2022-09-18T21:23:58.538Z,6.15
2022-09-18T21:26:23.501Z,5.32
2022-09-18T21:28:47.071Z,8.27
2022-09-18T21:31:12.067Z,4.63
2022-09-18T21:33:37.325Z,4.95
2022-09-18T21:36:02.562Z,5.18
2022-09-18T21:38:26.051Z,6.53
2022-09-18T21:40:49.731Z,4.82
2022-09-18T21:43:15.559Z,6.93
2022-09-18T21:45:40.314Z,5.70
2022-09-18T21:48:04.225Z,9.88
2022-09-18T21:50:27.892Z,5.00
2022-09-18T21:52:52.806Z,10.18
2022-09-18T21:55:16.611Z,5.28
2022-09-18T21:57:40.556Z,6.38
2022-09-18T22:00:05.585Z,9.30
2022-09-18T22:02:36.511Z,7.15
2022-09-18T22:05:01.137Z,4.93
2022-09-18T22:07:25.223Z,8.95
2022-09-18T22:09:52.583Z,3.28
2022-09-18T22:12:16.126Z,6.80
2022-09-18T22:14:39.830Z,6.90
2022-09-18T22:17:06.854Z,7.80
2022-09-18T22:19:33.313Z,9.00
2022-09-18T22:21:57.491Z,6.80
2022-09-18T22:24:23.913Z,5.00
2022-09-18T22:26:54.741Z,5.35
2022-09-18T22:29:21.011Z,8.20
2022-09-18T22:31:46.547Z,8.60
2022-09-18T22:34:10.205Z,3.85
2022-09-18T22:36:34.093Z,4.35
2022-09-18T22:38:57.745Z,4.18
2022-09-18T22:41:21.954Z,8.40
2022-09-18T22:43:46.979Z,6.03
2022-09-18T22:46:14.269Z,4.78
2022-09-18T22:48:39.238Z,5.30
2022-09-18T22:51:08.069Z,6.65
2022-09-18T22:53:31.831Z,5.95
2022-09-18T22:56:02.531Z,8.18
2022-09-18T22:58:26.079Z,8.93
2022-09-18T23:00:50.994Z,3.97
2022-09-18T23:03:14.555Z,7.00
2022-09-18T23:05:40.219Z,6.53
2022-09-18T23:08:03.919Z,9.52
2022-09-18T23:10:27.458Z,6.40
2022-09-18T23:12:50.999Z,4.90
2022-09-18T23:15:14.526Z,7.15
2022-09-18T23:17:40.893Z,7.55
2022-09-18T23:20:04.745Z,6.93
2022-09-18T23:22:28.286Z,10.80
2022-09-18T23:24:52.618Z,7.38
2022-09-18T23:27:16.176Z,8.05
2022-09-18T23:29:41.121Z,13.63
2022-09-18T23:32:04.843Z,6.78
2022-09-18T23:34:33.697Z,5.30
2022-09-18T23:36:58.189Z,10.13
2022-09-18T23:39:25.168Z,6.57
2022-09-18T23:41:48.834Z,6.93
2022-09-18T23:44:15.619Z,5.72
2022-09-18T23:46:39.430Z,5.35
2022-09-18T23:49:03.584Z,5.95
2022-09-18T23:51:31.290Z,5.55
2022-09-18T23:53:57.157Z,7.82
2022-09-18T23:56:23.532Z,12.65
2022-09-18T23:58:47.301Z,5.05
